createdAt,value
2022-12-11T00:00:19.997Z,-4.33
2022-12-11T00:02:50.450Z,-4.30
2022-12-11T00:05:21.085Z,-4.27
2022-12-11T00:07:51.530Z,-4.25
2022-12-11T00:10:22.020Z,-4.24
2022-12-11T00:12:52.425Z,-4.23
2022-12-11T00:15:22.805Z,-4.22
2022-12-11T00:17:53.222Z,-4.18
2022-12-11T00:20:23.610Z,-4.13
2022-12-11T00:22:54.153Z,-4.07
2022-12-11T00:25:24.560Z,-4.03
2022-12-11T00:27:55.009Z,-4.01
2022-12-11T00:30:25.427Z,-4.00
2022-12-11T00:32:55.843Z,-3.98
2022-12-11T00:35:26.741Z,-3.97
2022-12-11T00:37:57.164Z,-3.96
2022-12-11T00:40:27.619Z,-3.94
2022-12-11T00:42:58.009Z,-3.91
2022-12-11T00:45:28.415Z,-3.86
2022-12-11T00:47:58.835Z,-3.84
2022-12-11T00:50:29.214Z,-3.83
2022-12-11T00:53:00.182Z,-3.85
2022-12-11T00:55:30.577Z,-3.85
2022-12-11T00:58:01.073Z,-3.87
2022-12-11T01:00:31.430Z,-3.90
2022-12-11T01:03:02.091Z,-3.92
2022-12-11T01:05:32.697Z,-3.93
2022-12-11T01:08:03.360Z,-3.92
2022-12-11T01:10:34.480Z,-3.91
2022-12-11T01:13:07.007Z,-3.89
2022-12-11T01:15:42.014Z,-3.90
2022-12-11T01:18:13.705Z,-3.94
2022-12-11T01:20:44.875Z,-3.96
2022-12-11T01:23:15.947Z,-3.97
2022-12-11T01:25:46.403Z,-3.97
2022-12-11T01:28:16.837Z,-4.00
2022-12-11T01:30:47.399Z,-4.00
2022-12-11T01:33:17.906Z,-3.99
2022-12-11T01:35:48.306Z,-3.95
2022-12-11T01:38:18.715Z,-3.91
2022-12-11T01:40:51.140Z,-3.86
2022-12-11T01:43:21.848Z,-3.84
2022-12-11T01:45:52.442Z,-3.81
2022-12-11T01:48:24.780Z,-3.81
2022-12-11T01:50:57.511Z,-3.82
2022-12-11T01:53:30.503Z,-3.83
2022-12-11T01:55:59.476Z,-3.83
2022-12-11T01:58:32.226Z,-3.82
2022-12-11T02:01:03.286Z,-3.80
2022-12-11T02:03:33.910Z,-3.77
2022-12-11T02:06:05.019Z,-3.71
2022-12-11T02:08:36.227Z,-3.66
2022-12-11T02:11:10.351Z,-3.64
2022-12-11T02:13:46.365Z,-3.63
2022-12-11T02:16:22.617Z,-3.63
2022-12-11T02:19:01.236Z,-3.64
2022-12-11T02:21:38.413Z,-3.64
2022-12-11T02:24:27.869Z,-3.62
2022-12-11T02:27:17.915Z,-3.60
2022-12-11T02:29:52.502Z,-3.54
2022-12-11T02:32:26.243Z,-3.50
2022-12-11T02:35:01.358Z,-3.49
2022-12-11T02:37:32.920Z,-3.49
2022-12-11T02:40:06.858Z,-3.51
2022-12-11T02:42:38.711Z,-3.53
2022-12-11T02:45:11.352Z,-3.54
2022-12-11T02:47:41.955Z,-3.55
2022-12-11T02:50:14.930Z,-3.53
2022-12-11T02:52:43.909Z,-3.50
2022-12-11T02:55:16.204Z,-3.49
2022-12-11T02:57:48.409Z,-3.49
2022-12-11T03:00:19.658Z,-3.53
2022-12-11T03:02:50.262Z,-3.57
2022-12-11T03:05:22.393Z,-3.59
2022-12-11T03:07:53.629Z,-3.61
2022-12-11T03:10:24.712Z,-3.63
2022-12-11T03:12:57.026Z,-3.66
2022-12-11T03:15:32.790Z,-3.68
2022-12-11T03:18:07.571Z,-3.67
2022-12-11T03:20:42.702Z,-3.64
2022-12-11T03:23:19.028Z,-3.61
2022-12-11T03:25:55.460Z,-3.61
2022-12-11T03:28:30.691Z,-3.63
2022-12-11T03:31:06.476Z,-3.65
2022-12-11T03:33:40.029Z,-3.66
2022-12-11T03:36:13.744Z,-3.68
2022-12-11T03:38:50.144Z,-3.66
2022-12-11T03:41:22.149Z,-3.64
2022-12-11T03:43:54.676Z,-3.60
2022-12-11T03:46:29.075Z,-3.58
2022-12-11T03:49:02.532Z,-3.59
2022-12-11T03:51:33.996Z,-3.59
2022-12-11T03:54:05.061Z,-3.59
2022-12-11T03:56:37.386Z,-3.61
2022-12-11T03:59:07.799Z,-3.63
2022-12-11T04:01:38.489Z,-3.64
2022-12-11T04:04:09.161Z,-3.62
2022-12-11T04:06:39.595Z,-3.61
2022-12-11T04:09:10.116Z,-3.61
2022-12-11T04:11:42.837Z,-3.60
2022-12-11T04:14:33.345Z,-3.62
2022-12-11T04:17:04.355Z,-3.63
2022-12-11T04:19:52.168Z,-3.65
2022-12-11T04:22:40.157Z,-3.66
2022-12-11T04:25:11.506Z,-3.65
2022-12-11T04:27:50.980Z,-3.62
2022-12-11T04:30:28.043Z,-3.61
2022-12-11T04:33:01.413Z,-3.61
2022-12-11T04:35:31.927Z,-3.62
2022-12-11T04:38:02.340Z,-3.63
2022-12-11T04:40:32.842Z,-3.63
2022-12-11T04:43:03.298Z,-3.62
2022-12-11T04:45:33.784Z,-3.59
2022-12-11T04:48:04.157Z,-3.56
2022-12-11T04:50:34.504Z,-3.55
2022-12-11T04:53:04.936Z,-3.56
2022-12-11T04:55:35.358Z,-3.56
2022-12-11T04:58:05.789Z,-3.59
2022-12-11T05:00:36.150Z,-3.61
2022-12-11T05:03:06.656Z,-3.63
2022-12-11T05:05:37.080Z,-3.64
2022-12-11T05:08:08.259Z,-3.66
2022-12-11T05:10:38.764Z,-3.67
2022-12-11T05:13:09.341Z,-3.69
2022-12-11T05:15:41.303Z,-3.72
2022-12-11T05:18:11.717Z,-3.76
2022-12-11T05:20:42.075Z,-3.78
2022-12-11T05:23:12.498Z,-3.79
2022-12-11T05:25:42.992Z,-3.76
2022-12-11T05:28:13.469Z,-3.70
2022-12-11T05:30:43.911Z,-3.64
2022-12-11T05:33:14.449Z,-3.63
2022-12-11T05:35:50.245Z,-3.64
2022-12-11T05:38:20.732Z,-3.64
2022-12-11T05:40:59.575Z,-3.66
2022-12-11T05:43:31.784Z,-3.67
2022-12-11T05:46:09.066Z,-3.67
2022-12-11T05:48:40.344Z,-3.63
2022-12-11T05:51:11.557Z,-3.60
2022-12-11T05:53:44.059Z,-3.60
2022-12-11T05:56:16.437Z,-3.58
2022-12-11T05:58:47.880Z,-3.58
2022-12-11T06:01:20.100Z,-3.57
2022-12-11T06:03:50.787Z,-3.56
2022-12-11T06:06:21.277Z,-3.55
2022-12-11T06:08:53.934Z,-3.53
2022-12-11T06:11:25.034Z,-3.50
2022-12-11T06:13:55.589Z,-3.46
2022-12-11T06:16:26.813Z,-3.45
2022-12-11T06:18:58.603Z,-3.45
2022-12-11T06:21:31.336Z,-3.48
2022-12-11T06:24:03.964Z,-3.51
2022-12-11T06:26:34.640Z,-3.52
2022-12-11T06:29:09.043Z,-3.53
2022-12-11T06:31:43.032Z,-3.50
2022-12-11T06:34:13.832Z,-3.47
2022-12-11T06:36:44.217Z,-3.44
2022-12-11T06:39:14.622Z,-3.48
2022-12-11T06:41:46.961Z,-3.56
2022-12-11T06:44:17.579Z,-3.62
2022-12-11T06:46:48.105Z,-3.66
2022-12-11T06:49:22.032Z,-3.70
2022-12-11T06:51:52.485Z,-3.71
2022-12-11T06:54:23.592Z,-3.69
2022-12-11T06:56:54.345Z,-3.65
2022-12-11T06:59:24.798Z,-3.61
2022-12-11T07:01:55.359Z,-3.59
2022-12-11T07:04:27.424Z,-3.58
2022-12-11T07:06:58.077Z,-3.56
2022-12-11T07:09:28.677Z,-3.55
2022-12-11T07:11:59.218Z,-3.53
2022-12-11T07:14:29.730Z,-3.48
2022-12-11T07:17:00.680Z,-3.41
2022-12-11T07:19:31.480Z,-3.35
2022-12-11T07:22:01.961Z,-3.36
2022-12-11T07:24:32.654Z,-3.39
2022-12-11T07:27:03.303Z,-3.43
2022-12-11T07:29:33.794Z,-3.45
2022-12-11T07:32:04.353Z,-3.46
2022-12-11T07:34:34.892Z,-3.46
2022-12-11T07:37:05.382Z,-3.43
2022-12-11T07:39:35.870Z,-3.37
2022-12-11T07:42:06.573Z,-3.32
2022-12-11T07:44:37.000Z,-3.29
2022-12-11T07:47:07.513Z,-3.29
2022-12-11T07:49:38.344Z,-3.29
2022-12-11T07:52:09.193Z,-3.29
2022-12-11T07:54:39.658Z,-3.28
2022-12-11T07:57:14.100Z,-3.23
2022-12-11T07:59:45.351Z,-3.15
2022-12-11T08:02:15.810Z,-3.09
2022-12-11T08:04:46.372Z,-3.04
2022-12-11T08:07:16.911Z,-3.02
2022-12-11T08:09:47.423Z,-3.01
2022-12-11T08:12:17.891Z,-3.01
2022-12-11T08:14:48.506Z,-3.02
2022-12-11T08:17:18.861Z,-2.99
2022-12-11T08:19:49.404Z,-2.94
2022-12-11T08:22:19.842Z,-2.89
2022-12-11T08:24:50.672Z,-2.86
2022-12-11T08:27:21.133Z,-2.85
2022-12-11T08:29:51.591Z,-2.85
2022-12-11T08:32:22.025Z,-2.89
2022-12-11T08:34:54.743Z,-2.91
2022-12-11T08:37:25.371Z,-2.89
2022-12-11T08:39:55.844Z,-2.84
2022-12-11T08:42:26.392Z,-2.80
2022-12-11T08:44:56.886Z,-2.78
2022-12-11T08:47:27.335Z,-2.76
2022-12-11T08:50:00.294Z,-2.74
2022-12-11T08:52:31.284Z,-2.74
2022-12-11T08:55:01.936Z,-2.74
2022-12-11T08:57:32.557Z,-2.77
2022-12-11T09:00:03.232Z,-2.76
2022-12-11T09:02:33.743Z,-2.73
2022-12-11T09:05:07.742Z,-2.73
2022-12-11T09:07:38.939Z,-2.71
2022-12-11T09:10:11.115Z,-2.70
2022-12-11T09:12:41.602Z,-2.68
2022-12-11T09:15:13.334Z,-2.69
2022-12-11T09:17:44.521Z,-2.69
2022-12-11T09:20:15.442Z,-2.65
2022-12-11T09:22:45.869Z,-2.60
2022-12-11T09:25:16.272Z,-2.56
2022-12-11T09:27:46.701Z,-2.54
2022-12-11T09:30:18.553Z,-2.53
2022-12-11T09:32:49.219Z,-2.50
2022-12-11T09:35:19.766Z,-2.49
2022-12-11T09:37:51.914Z,-2.45
2022-12-11T09:40:22.613Z,-2.38
2022-12-11T09:43:16.247Z,-2.31
2022-12-11T09:45:46.697Z,-2.27
2022-12-11T09:48:19.546Z,-2.26
2022-12-11T09:50:50.710Z,-2.24
2022-12-11T09:53:23.493Z,-2.25
2022-12-11T09:55:57.399Z,-2.28
2022-12-11T09:58:31.852Z,-2.31
2022-12-11T10:01:07.425Z,-2.33
2022-12-11T10:03:45.245Z,-2.32
2022-12-11T10:06:21.704Z,-2.30
2022-12-11T10:08:57.984Z,-2.28
2022-12-11T10:11:56.490Z,-2.28
2022-12-11T10:14:34.458Z,-2.27
2022-12-11T10:17:08.086Z,-2.27
2022-12-11T10:19:38.628Z,-2.27
2022-12-11T10:22:15.479Z,-2.27
2022-12-11T10:27:41.552Z,-2.30
2022-12-11T10:30:18.857Z,-2.33
2022-12-11T10:33:02.060Z,-2.38
2022-12-11T10:35:34.869Z,-2.42
2022-12-11T10:38:14.602Z,-2.43
2022-12-11T10:40:47.177Z,-2.41
2022-12-11T10:43:17.569Z,-2.40
2022-12-11T10:45:55.080Z,-2.41
2022-12-11T10:48:25.630Z,-2.43
2022-12-11T10:51:05.642Z,-2.49
2022-12-11T10:53:36.305Z,-2.57
2022-12-11T10:56:07.851Z,-2.62
2022-12-11T10:58:41.591Z,-2.68
2022-12-11T11:01:15.367Z,-2.73
2022-12-11T11:03:56.647Z,-2.73
2022-12-11T11:06:27.759Z,-2.75
2022-12-11T11:09:00.461Z,-2.78
2022-12-11T11:11:34.297Z,-2.80
2022-12-11T11:14:13.814Z,-2.79
2022-12-11T11:16:45.868Z,-2.76
2022-12-11T11:19:24.639Z,-2.79
2022-12-11T11:21:57.679Z,-2.86
2022-12-11T11:24:36.434Z,-2.88
2022-12-11T11:27:15.621Z,-2.90
2022-12-11T11:29:51.570Z,-2.93
2022-12-11T11:32:33.001Z,-2.91
2022-12-11T11:35:19.412Z,-2.88
2022-12-11T11:37:57.985Z,-2.88
2022-12-11T11:40:31.737Z,-2.88
2022-12-11T11:43:08.727Z,-2.94
2022-12-11T11:45:44.458Z,-2.95
2022-12-11T11:48:31.940Z,-2.96
2022-12-11T11:51:08.282Z,-2.95
2022-12-11T11:53:41.531Z,-2.89
2022-12-11T11:56:21.348Z,-2.81
2022-12-11T11:58:57.558Z,-2.74
2022-12-11T12:01:28.253Z,-2.71
2022-12-11T12:03:58.855Z,-2.69
2022-12-11T12:06:37.847Z,-2.67
2022-12-11T12:09:20.884Z,-2.70
2022-12-11T12:11:56.848Z,-2.72
2022-12-11T12:14:51.689Z,-2.70
2022-12-11T12:17:24.109Z,-2.64
2022-12-11T12:20:03.906Z,-2.64
2022-12-11T12:22:46.311Z,-2.64
2022-12-11T12:25:23.429Z,-2.63
2022-12-11T12:28:00.414Z,-2.62
2022-12-11T12:30:33.203Z,-2.62
2022-12-11T12:33:15.002Z,-2.59
2022-12-11T12:35:53.820Z,-2.56
2022-12-11T12:38:27.980Z,-2.55
2022-12-11T12:41:07.324Z,-2.56
2022-12-11T12:43:49.149Z,-2.60
2022-12-11T12:46:25.263Z,-2.61
2022-12-11T12:48:58.285Z,-2.63
2022-12-11T12:51:29.309Z,-2.64
2022-12-11T12:54:02.275Z,-2.62
2022-12-11T12:56:31.924Z,-2.57
2022-12-11T12:59:05.195Z,-2.53
2022-12-11T13:01:35.683Z,-2.51
2022-12-11T13:04:20.760Z,-2.53
2022-12-11T13:07:10.862Z,-2.57
2022-12-11T13:09:43.024Z,-2.65
2022-12-11T13:12:22.361Z,-2.70
2022-12-11T13:14:59.809Z,-2.69
2022-12-11T13:17:38.704Z,-2.66
2022-12-11T13:20:19.564Z,-2.69
2022-12-11T13:22:58.042Z,-2.72
2022-12-11T13:25:35.187Z,-2.73
2022-12-11T13:28:23.263Z,-2.73
2022-12-11T13:31:04.956Z,-2.73
2022-12-11T13:33:38.676Z,-2.75
2022-12-11T13:36:30.048Z,-2.71
2022-12-11T13:39:03.819Z,-2.63
2022-12-11T13:41:37.501Z,-2.58
2022-12-11T13:44:09.035Z,-2.56
2022-12-11T13:46:40.235Z,-2.55
2022-12-11T13:49:22.047Z,-2.56
2022-12-11T13:51:57.700Z,-2.58
2022-12-11T13:54:31.353Z,-2.60
2022-12-11T13:57:15.225Z,-2.62
2022-12-11T13:59:50.464Z,-2.60
2022-12-11T14:02:24.296Z,-2.56
2022-12-11T14:04:57.798Z,-2.53
2022-12-11T14:07:30.977Z,-2.53
2022-12-11T14:10:06.077Z,-2.55
2022-12-11T14:12:36.678Z,-2.57
2022-12-11T14:15:12.963Z,-2.59
2022-12-11T14:17:51.367Z,-2.62
2022-12-11T14:20:23.744Z,-2.63
2022-12-11T14:23:04.946Z,-2.60
2022-12-11T14:25:35.456Z,-2.56
2022-12-11T14:28:06.137Z,-2.54
2022-12-11T14:30:38.649Z,-2.53
2022-12-11T14:33:09.145Z,-2.54
2022-12-11T14:35:43.089Z,-2.53
2022-12-11T14:38:19.519Z,-2.54
2022-12-11T14:40:53.180Z,-2.56
2022-12-11T14:43:26.582Z,-2.58
2022-12-11T14:46:00.714Z,-2.58
2022-12-11T14:48:33.789Z,-2.59
2022-12-11T14:51:02.972Z,-2.57
2022-12-11T14:53:36.835Z,-2.57
2022-12-11T14:56:09.682Z,-2.58
2022-12-11T14:58:43.653Z,-2.58
2022-12-11T15:01:25.821Z,-2.63
2022-12-11T15:04:07.169Z,-2.67
2022-12-11T15:06:44.417Z,-2.69
2022-12-11T15:09:29.354Z,-2.72
2022-12-11T15:12:09.433Z,-2.69
2022-12-11T15:14:45.231Z,-2.64
2022-12-11T15:17:16.938Z,-2.60
2022-12-11T15:19:51.572Z,-2.59
2022-12-11T15:22:25.129Z,-2.62
2022-12-11T15:24:56.493Z,-2.64
2022-12-11T15:27:33.925Z,-2.68
2022-12-11T15:30:15.836Z,-2.70
2022-12-11T15:32:46.230Z,-2.73
2022-12-11T15:35:27.569Z,-2.74
2022-12-11T15:37:59.116Z,-2.74
2022-12-11T15:40:29.886Z,-2.73
2022-12-11T15:43:00.519Z,-2.75
2022-12-11T15:45:30.888Z,-2.75
2022-12-11T15:48:01.288Z,-2.78
2022-12-11T15:50:32.054Z,-2.77
2022-12-11T16:00:39.117Z,-2.78
2022-12-11T16:03:10.459Z,-2.78
2022-12-11T16:05:41.083Z,-2.73
2022-12-11T16:08:12.214Z,-2.70
2022-12-11T16:10:43.532Z,-2.71
2022-12-11T16:13:14.471Z,-2.71
2022-12-11T16:15:46.231Z,-2.71
2022-12-11T16:18:18.026Z,-2.71
2022-12-11T16:20:48.847Z,-2.77
2022-12-11T16:23:20.033Z,-2.77
2022-12-11T16:25:50.925Z,-2.73
2022-12-11T16:28:22.412Z,-2.67
2022-12-11T16:30:52.927Z,-2.62
2022-12-11T16:33:23.664Z,-2.59
2022-12-11T16:35:54.423Z,-2.56
2022-12-11T16:38:24.946Z,-2.59
2022-12-11T16:41:03.356Z,-2.62
2022-12-11T16:43:34.661Z,-2.66
2022-12-11T16:46:05.427Z,-2.67
2022-12-11T16:48:35.890Z,-2.66
2022-12-11T16:51:07.036Z,-2.64
2022-12-11T16:53:37.600Z,-2.65
2022-12-11T16:56:09.667Z,-2.68
2022-12-11T16:58:40.532Z,-2.68
2022-12-11T17:01:13.755Z,-2.70
2022-12-11T17:03:45.447Z,-2.72
2022-12-11T17:06:17.418Z,-2.70
2022-12-11T17:08:48.260Z,-2.67
2022-12-11T17:11:20.098Z,-2.63
2022-12-11T17:13:52.128Z,-2.64
2022-12-11T17:16:24.871Z,-2.64
2022-12-11T17:18:56.085Z,-2.65
2022-12-11T17:21:26.786Z,-2.64
2022-12-11T17:23:57.216Z,-2.64
2022-12-11T17:26:28.585Z,-2.65
2022-12-11T17:29:00.039Z,-2.62
2022-12-11T17:31:30.543Z,-2.59
2022-12-11T17:34:01.760Z,-2.57
2022-12-11T17:36:32.193Z,-2.55
2022-12-11T17:39:02.751Z,-2.54
2022-12-11T17:41:33.405Z,-2.53
2022-12-11T17:44:04.117Z,-2.53
2022-12-11T17:46:34.817Z,-2.53
2022-12-11T17:49:06.164Z,-2.53
2022-12-11T17:51:36.633Z,-2.50
2022-12-11T17:54:07.231Z,-2.46
2022-12-11T17:56:37.598Z,-2.42
2022-12-11T17:59:08.135Z,-2.42
2022-12-11T18:01:38.653Z,-2.43
2022-12-11T18:04:09.567Z,-2.47
2022-12-11T18:06:40.047Z,-2.52
2022-12-11T18:09:11.249Z,-2.57
2022-12-11T18:11:41.686Z,-2.62
2022-12-11T18:14:16.870Z,-2.65
2022-12-11T18:16:48.489Z,-2.63
2022-12-11T18:19:19.419Z,-2.61
2022-12-11T18:21:50.392Z,-2.60
2022-12-11T18:24:21.036Z,-2.61
2022-12-11T18:26:51.454Z,-2.62
2022-12-11T18:29:21.864Z,-2.62
2022-12-11T18:31:52.340Z,-2.61
2022-12-11T18:34:22.855Z,-2.58
2022-12-11T18:36:53.275Z,-2.54
2022-12-11T18:39:23.810Z,-2.53
2022-12-11T18:42:24.381Z,-2.54
2022-12-11T18:44:45.414Z,-2.55
2022-12-11T18:47:16.002Z,-2.59
2022-12-11T18:49:46.362Z,-2.62
2022-12-11T18:52:16.868Z,-2.65
2022-12-11T18:54:47.251Z,-2.64
2022-12-11T18:57:17.650Z,-2.62
2022-12-11T18:59:48.029Z,-2.60
2022-12-11T19:02:18.735Z,-2.61
2022-12-11T19:06:13.127Z,-2.66
2022-12-11T19:08:43.676Z,-2.75
2022-12-11T19:11:16.922Z,-2.81
2022-12-11T19:13:48.393Z,-2.87
2022-12-11T19:16:24.601Z,-2.89
2022-12-11T19:18:55.368Z,-2.88
2022-12-11T19:21:25.948Z,-2.87
2022-12-11T19:23:56.396Z,-2.87
2022-12-11T19:26:27.082Z,-2.87
2022-12-11T19:29:00.002Z,-2.87
2022-12-11T19:31:29.442Z,-2.87
2022-12-11T19:34:00.830Z,-2.88
2022-12-11T19:36:33.602Z,-2.88
2022-12-11T19:39:09.821Z,-2.85
2022-12-11T19:41:43.405Z,-2.80
2022-12-11T19:44:14.088Z,-2.74
2022-12-11T19:46:44.608Z,-2.70
2022-12-11T19:49:15.405Z,-2.67
2022-12-11T19:51:46.210Z,-2.65
2022-12-11T19:54:17.877Z,-2.64
2022-12-11T19:56:48.306Z,-2.63
2022-12-11T19:59:19.177Z,-2.63
2022-12-11T20:01:49.807Z,-2.61
2022-12-11T20:04:21.061Z,-2.58
2022-12-11T20:06:51.690Z,-2.56
2022-12-11T20:09:22.240Z,-2.56
2022-12-11T20:11:52.766Z,-2.56
2022-12-11T20:14:26.955Z,-2.59
2022-12-11T20:17:14.947Z,-2.61
2022-12-11T20:19:45.965Z,-2.64
2022-12-11T20:22:16.617Z,-2.63
2022-12-11T20:24:47.027Z,-2.61
2022-12-11T20:27:17.447Z,-2.60
2022-12-11T20:29:48.038Z,-2.60
2022-12-11T20:32:18.657Z,-2.62
2022-12-11T20:34:49.181Z,-2.62
2022-12-11T20:37:19.865Z,-2.62
2022-12-11T20:39:50.310Z,-2.62
2022-12-11T20:42:20.708Z,-2.60
2022-12-11T20:44:51.336Z,-2.56
2022-12-11T20:47:22.546Z,-2.53
2022-12-11T20:49:53.545Z,-2.52
2022-12-11T20:52:23.996Z,-2.54
2022-12-11T20:54:54.292Z,-2.56
2022-12-11T20:57:24.702Z,-2.58
2022-12-11T20:59:55.192Z,-2.57
2022-12-11T21:02:25.872Z,-2.52
2022-12-11T21:04:56.317Z,-2.48
2022-12-11T21:07:26.987Z,-2.47
2022-12-11T21:09:57.362Z,-2.47
2022-12-11T21:12:31.512Z,-2.47
2022-12-11T21:21:00.417Z,-2.52
2022-12-11T21:23:30.833Z,-2.58
2022-12-11T21:26:01.352Z,-2.58
2022-12-11T21:28:35.548Z,-2.57
2022-12-11T21:31:09.656Z,-2.55
2022-12-11T21:33:40.216Z,-2.57
2022-12-11T21:36:13.707Z,-2.59
2022-12-11T21:38:45.966Z,-2.62
2022-12-11T21:41:17.693Z,-2.67
2022-12-11T21:46:39.766Z,-2.75
2022-12-11T21:49:10.277Z,-2.77
2022-12-11T21:51:47.130Z,-2.75
2022-12-11T21:54:19.955Z,-2.75
2022-12-11T21:56:50.363Z,-2.76
2022-12-11T21:59:20.827Z,-2.79
2022-12-11T22:01:51.387Z,-2.83
2022-12-11T22:04:22.512Z,-2.88
2022-12-11T22:06:55.653Z,-2.92
2022-12-11T22:09:26.309Z,-2.96
2022-12-11T22:11:58.723Z,-2.98
2022-12-11T22:14:31.270Z,-2.99
2022-12-11T22:17:02.858Z,-2.99
2022-12-11T22:19:33.409Z,-3.00
2022-12-11T22:22:03.821Z,-3.02
2022-12-11T22:24:34.506Z,-3.05
2022-12-11T22:27:05.002Z,-3.06
2022-12-11T22:29:35.840Z,-3.09
2022-12-11T22:32:06.656Z,-3.08
2022-12-11T22:34:37.387Z,-3.04
2022-12-11T22:37:07.839Z,-3.00
2022-12-11T22:39:38.192Z,-3.00
2022-12-11T22:42:08.633Z,-3.00
2022-12-11T22:44:39.012Z,-3.03
2022-12-11T22:47:09.755Z,-3.07
2022-12-11T22:49:40.272Z,-3.10
2022-12-11T22:52:11.065Z,-3.11
2022-12-11T22:54:42.461Z,-3.10
2022-12-11T22:57:14.171Z,-3.10
2022-12-11T22:59:44.571Z,-3.13
2022-12-11T23:02:15.388Z,-3.18
2022-12-11T23:04:45.878Z,-3.23
2022-12-11T23:07:16.316Z,-3.29
2022-12-11T23:09:46.991Z,-3.35
2022-12-11T23:12:18.891Z,-3.38
2022-12-11T23:14:49.567Z,-3.38
2022-12-11T23:17:20.053Z,-3.37
2022-12-11T23:19:50.550Z,-3.35
2022-12-11T23:22:20.973Z,-3.34
2022-12-11T23:24:51.423Z,-3.33
2022-12-11T23:27:21.799Z,-3.32
2022-12-11T23:29:52.429Z,-3.32
2022-12-11T23:32:22.956Z,-3.32
2022-12-11T23:34:53.366Z,-3.29
2022-12-11T23:37:23.838Z,-3.25
2022-12-11T23:39:54.273Z,-3.21
2022-12-11T23:42:24.778Z,-3.17
2022-12-11T23:44:55.312Z,-3.15
2022-12-11T23:47:25.959Z,-3.13
2022-12-11T23:49:56.628Z,-3.12
2022-12-11T23:52:27.203Z,-3.11
2022-12-11T23:54:57.705Z,-3.11
2022-12-11T23:57:29.268Z,-3.08
2022-12-11T23:59:59.681Z,-3.02
